createdAt,value
2023-04-14T00:00:43.579Z,93.45
2023-04-14T00:01:43.649Z,93.45
2023-04-14T00:02:43.722Z,93.35
2023-04-14T00:03:43.751Z,93.14
2023-04-14T00:04:43.722Z,93.14
2023-04-14T00:05:44.078Z,93.14
2023-04-14T00:06:43.507Z,93.04
2023-04-14T00:07:43.517Z,93.04
2023-04-14T00:08:43.476Z,92.93
2023-04-14T00:09:43.530Z,93.04
2023-04-14T00:10:43.467Z,93.04
2023-04-14T00:11:43.472Z,93.04
2023-04-14T00:12:43.446Z,92.83
2023-04-14T00:13:43.441Z,92.52
2023-04-14T00:14:43.448Z,92.52
2023-04-14T00:15:43.444Z,92.52
2023-04-14T00:16:43.390Z,92.57
2023-04-14T00:17:43.460Z,92.67
2023-04-14T00:18:43.355Z,92.87
2023-04-14T00:19:43.389Z,93.02
2023-04-14T00:20:43.324Z,93.23
2023-04-14T00:21:43.350Z,93.43
2023-04-14T00:22:43.355Z,93.64
2023-04-14T00:23:43.299Z,93.74
2023-04-14T00:24:43.295Z,93.95
2023-04-14T00:25:43.293Z,93.74
2023-04-14T00:26:43.251Z,93.68
2023-04-14T00:27:43.252Z,93.89
2023-04-14T00:28:43.216Z,94.35
2023-04-14T00:29:43.261Z,94.76
2023-04-14T00:30:43.289Z,95.28
2023-04-14T00:31:43.250Z,95.49
2023-04-14T00:32:43.222Z,95.80
2023-04-14T00:33:43.178Z,95.80
2023-04-14T00:34:43.202Z,95.90
2023-04-14T00:35:43.171Z,95.59
2023-04-14T00:36:44.041Z,95.39
2023-04-14T00:37:43.117Z,95.18
2023-04-14T00:38:43.071Z,95.14
2023-04-14T00:39:43.131Z,94.93
2023-04-14T00:40:43.048Z,94.72
2023-04-14T00:41:43.062Z,94.62
2023-04-14T00:42:43.041Z,94.31
2023-04-14T00:43:43.050Z,94.10
2023-04-14T00:44:43.051Z,94.10
2023-04-14T00:45:43.024Z,94.10
2023-04-14T00:46:43.047Z,94.10
2023-04-14T00:47:43.056Z,93.99
2023-04-14T00:48:42.976Z,93.99
2023-04-14T00:49:43.006Z,93.85
2023-04-14T00:50:42.965Z,93.64
2023-04-14T00:51:42.953Z,93.23
2023-04-14T00:52:42.895Z,92.91
2023-04-14T00:53:42.910Z,92.71
2023-04-14T00:54:42.935Z,92.50
2023-04-14T00:55:42.896Z,92.30
2023-04-14T00:56:42.852Z,92.09
2023-04-14T00:57:42.847Z,91.94
2023-04-14T00:58:42.808Z,91.67
2023-04-14T00:59:42.880Z,91.67
2023-04-14T01:00:42.791Z,91.47
2023-04-14T01:01:42.961Z,91.26
2023-04-14T01:02:42.983Z,91.36
2023-04-14T01:03:48.999Z,91.47
2023-04-14T01:04:53.715Z,91.57
2023-04-14T01:05:42.726Z,91.57
2023-04-14T01:06:42.746Z,91.67
2023-04-14T01:07:42.691Z,91.88
2023-04-14T01:08:42.715Z,91.78
2023-04-14T01:09:42.670Z,91.57
2023-04-14T01:10:42.675Z,91.57
2023-04-14T01:11:42.636Z,91.47
2023-04-14T01:12:42.668Z,91.26
2023-04-14T01:13:43.191Z,91.16
2023-04-14T01:14:42.626Z,91.16
2023-04-14T01:15:42.641Z,91.26
2023-04-14T01:16:42.598Z,91.47
2023-04-14T01:17:42.563Z,91.67
2023-04-14T01:18:42.612Z,91.57
2023-04-14T01:19:42.515Z,91.36
2023-04-14T01:20:42.556Z,91.16
2023-04-14T01:21:42.521Z,91.16
2023-04-14T01:22:42.539Z,91.16
2023-04-14T01:23:42.471Z,91.26
2023-04-14T01:24:42.490Z,91.47
2023-04-14T01:25:42.459Z,91.67
2023-04-14T01:26:42.457Z,91.78
2023-04-14T01:27:42.434Z,91.67
2023-04-14T01:28:42.433Z,91.57
2023-04-14T01:29:42.390Z,91.47
2023-04-14T01:30:42.421Z,91.36
2023-04-14T01:31:42.451Z,91.26
2023-04-14T01:32:42.403Z,91.26
2023-04-14T01:33:42.342Z,91.26
2023-04-14T01:34:42.370Z,91.26
2023-04-14T01:35:42.341Z,91.26
2023-04-14T01:36:42.351Z,91.20
2023-04-14T01:37:42.292Z,91.30
2023-04-14T01:38:42.294Z,91.41
2023-04-14T01:39:42.257Z,91.51
2023-04-14T01:40:42.299Z,91.41
2023-04-14T01:41:42.247Z,91.41
2023-04-14T01:42:42.260Z,91.51
2023-04-14T01:43:42.269Z,91.51
2023-04-14T01:44:42.208Z,91.61
2023-04-14T01:45:42.200Z,91.82
2023-04-14T01:46:42.205Z,92.03
2023-04-14T01:47:42.176Z,92.13
2023-04-14T01:48:42.167Z,92.24
2023-04-14T01:49:42.248Z,92.13
2023-04-14T01:50:42.119Z,92.13
2023-04-14T01:51:42.138Z,92.13
2023-04-14T01:52:42.096Z,92.03
2023-04-14T01:53:42.126Z,92.13
2023-04-14T01:54:42.065Z,92.24
2023-04-14T01:55:42.107Z,92.13
2023-04-14T01:56:42.055Z,92.13
2023-04-14T01:57:42.051Z,92.03
2023-04-14T01:58:42.020Z,91.82
2023-04-14T01:59:42.024Z,91.72
2023-04-14T02:00:42.008Z,91.82
2023-04-14T02:01:41.991Z,91.82
2023-04-14T02:02:42.073Z,91.93
2023-04-14T02:03:42.067Z,91.93
2023-04-14T02:04:41.921Z,91.82
2023-04-14T02:05:41.958Z,91.61
2023-04-14T02:06:41.894Z,91.61
2023-04-14T02:07:41.929Z,91.61
2023-04-14T02:08:41.874Z,91.72
2023-04-14T02:09:41.896Z,91.61
2023-04-14T02:10:41.883Z,91.51
2023-04-14T02:11:41.865Z,91.66
2023-04-14T02:12:41.819Z,91.86
2023-04-14T02:13:41.862Z,92.07
2023-04-14T02:14:41.821Z,92.49
2023-04-14T02:15:41.796Z,92.80
2023-04-14T02:16:41.841Z,92.80
2023-04-14T02:17:41.863Z,92.80
2023-04-14T02:18:41.764Z,92.90
2023-04-14T02:19:41.765Z,93.10
2023-04-14T02:20:41.712Z,93.31
2023-04-14T02:21:41.732Z,93.62
2023-04-14T02:22:41.727Z,93.73
2023-04-14T02:23:41.707Z,93.83
2023-04-14T02:24:41.674Z,94.14
2023-04-14T02:25:41.692Z,94.14
2023-04-14T02:26:41.672Z,94.04
2023-04-14T02:27:41.721Z,93.93
2023-04-14T02:28:41.711Z,93.83
2023-04-14T02:29:41.676Z,93.93
2023-04-14T02:30:41.639Z,93.83
2023-04-14T02:31:41.650Z,93.73
2023-04-14T02:32:41.618Z,93.52
2023-04-14T02:33:41.578Z,93.31
2023-04-14T02:34:41.526Z,93.31
2023-04-14T02:35:41.551Z,93.35
2023-04-14T02:36:41.507Z,93.25
2023-04-14T02:37:41.509Z,93.04
2023-04-14T02:38:41.490Z,93.15
2023-04-14T02:39:41.494Z,93.19
2023-04-14T02:40:41.451Z,92.88
2023-04-14T02:41:41.483Z,93.19
2023-04-14T02:42:41.412Z,93.54
2023-04-14T02:43:41.456Z,93.85
2023-04-14T02:44:41.394Z,94.17
2023-04-14T02:45:41.442Z,94.58
2023-04-14T02:46:41.389Z,94.79
2023-04-14T02:47:41.395Z,94.89
2023-04-14T02:48:41.367Z,95.26
2023-04-14T02:49:41.370Z,95.37
2023-04-14T02:50:41.324Z,95.37
2023-04-14T02:51:41.348Z,95.26
2023-04-14T02:52:41.286Z,95.26
2023-04-14T02:53:41.338Z,95.32
2023-04-14T02:54:41.277Z,95.22
2023-04-14T02:55:41.268Z,95.12
2023-04-14T02:56:41.252Z,95.01
2023-04-14T02:57:41.287Z,94.81
2023-04-14T02:58:41.210Z,94.60
2023-04-14T02:59:41.223Z,94.64
2023-04-14T03:00:41.200Z,94.70
2023-04-14T03:01:41.220Z,94.70
2023-04-14T03:02:41.250Z,94.74
2023-04-14T03:03:41.160Z,94.70
2023-04-14T03:04:41.256Z,94.70
2023-04-14T03:05:41.161Z,94.60
2023-04-14T03:06:41.111Z,94.74
2023-04-14T03:07:41.155Z,94.85
2023-04-14T03:08:41.085Z,94.74
2023-04-14T03:09:41.090Z,94.85
2023-04-14T03:10:41.082Z,94.85
2023-04-14T03:11:41.061Z,94.95
2023-04-14T03:12:41.026Z,95.06
2023-04-14T03:13:41.056Z,95.06
2023-04-14T03:14:40.991Z,95.06
2023-04-14T03:15:41.067Z,95.16
2023-04-14T03:16:41.004Z,95.26
2023-04-14T03:17:41.072Z,95.26
2023-04-14T03:18:41.002Z,95.37
2023-04-14T03:19:40.961Z,95.26
2023-04-14T03:20:40.924Z,95.26
2023-04-14T03:21:40.934Z,95.16
2023-04-14T03:22:40.993Z,95.16
2023-04-14T03:23:40.909Z,95.16
2023-04-14T03:24:40.925Z,95.16
2023-04-14T03:25:40.901Z,95.01
2023-04-14T03:26:40.836Z,94.95
2023-04-14T03:27:40.861Z,94.95
2023-04-14T03:28:40.814Z,95.01
2023-04-14T03:29:40.840Z,95.01
2023-04-14T03:30:40.807Z,94.91
2023-04-14T03:31:40.817Z,94.91
2023-04-14T03:32:40.806Z,94.91
2023-04-14T03:33:40.772Z,94.70
2023-04-14T03:34:40.737Z,94.60
2023-04-14T03:35:40.770Z,94.60
2023-04-14T03:36:40.732Z,94.70
2023-04-14T03:37:40.724Z,94.70
2023-04-14T03:38:40.706Z,94.81
2023-04-14T03:39:40.708Z,94.60
2023-04-14T03:40:40.654Z,94.60
2023-04-14T03:41:40.681Z,94.60
2023-04-14T03:42:40.661Z,94.60
2023-04-14T03:43:40.649Z,94.70
2023-04-14T03:44:40.600Z,94.81
2023-04-14T03:45:40.633Z,94.70
2023-04-14T03:46:40.599Z,94.81
2023-04-14T03:47:40.644Z,94.70
2023-04-14T03:48:40.556Z,94.74
2023-04-14T03:49:40.555Z,94.95
2023-04-14T03:50:40.545Z,94.95
2023-04-14T03:51:40.531Z,94.95
2023-04-14T03:52:40.490Z,94.95
2023-04-14T03:53:40.516Z,95.06
2023-04-14T03:54:40.481Z,94.95
2023-04-14T03:55:40.502Z,95.06
2023-04-14T03:56:40.456Z,95.06
2023-04-14T03:57:40.465Z,95.06
2023-04-14T03:58:40.421Z,95.26
2023-04-14T03:59:40.438Z,95.16
2023-04-14T04:00:40.431Z,94.95
2023-04-14T04:01:40.490Z,95.06
2023-04-14T04:02:40.491Z,95.06
2023-04-14T04:03:40.720Z,94.95
2023-04-14T04:04:40.468Z,94.95
2023-04-14T04:05:40.346Z,94.95
2023-04-14T04:06:40.319Z,94.85
2023-04-14T04:07:40.332Z,94.95
2023-04-14T04:08:40.298Z,94.95
2023-04-14T04:09:40.346Z,95.00
2023-04-14T04:10:40.278Z,94.89
2023-04-14T04:11:40.280Z,95.10
2023-04-14T04:12:40.240Z,95.31
2023-04-14T04:13:40.240Z,95.62
2023-04-14T04:14:40.221Z,95.83
2023-04-14T04:15:40.252Z,96.03
2023-04-14T04:16:40.205Z,96.24
2023-04-14T04:17:40.232Z,96.24
2023-04-14T04:18:40.151Z,96.24
2023-04-14T04:19:40.187Z,96.24
2023-04-14T04:20:40.147Z,96.14
2023-04-14T04:21:40.155Z,95.93
2023-04-14T04:22:40.108Z,95.72
2023-04-14T04:23:40.114Z,95.93
2023-04-14T04:24:40.084Z,95.83
2023-04-14T04:25:40.114Z,95.83
2023-04-14T04:26:40.064Z,95.93
2023-04-14T04:27:40.067Z,95.83
2023-04-14T04:28:40.022Z,95.72
2023-04-14T04:29:40.032Z,95.72
2023-04-14T04:30:40.050Z,95.62
2023-04-14T04:31:40.052Z,95.62
2023-04-14T04:32:40.020Z,95.31
2023-04-14T04:33:40.009Z,95.31
2023-04-14T04:34:39.952Z,95.31
2023-04-14T04:35:39.954Z,95.31
2023-04-14T04:36:39.941Z,95.26
2023-04-14T04:37:39.953Z,95.26
2023-04-14T04:38:39.887Z,95.26
2023-04-14T04:39:39.903Z,95.16
2023-04-14T04:40:39.865Z,95.06
2023-04-14T04:41:39.906Z,94.95
2023-04-14T04:42:39.841Z,94.95
2023-04-14T04:43:39.880Z,94.85
2023-04-14T04:44:39.820Z,94.64
2023-04-14T04:45:39.869Z,94.74
2023-04-14T04:46:39.849Z,94.95
2023-04-14T04:47:39.841Z,94.95
2023-04-14T04:48:39.762Z,94.85
2023-04-14T04:49:39.785Z,94.74
2023-04-14T04:50:39.740Z,94.74
2023-04-14T04:51:39.754Z,94.64
2023-04-14T04:52:39.729Z,94.95
2023-04-14T04:53:39.720Z,94.85
2023-04-14T04:54:39.672Z,94.95
2023-04-14T04:55:39.713Z,95.06
2023-04-14T04:56:39.649Z,95.06
2023-04-14T04:57:39.660Z,95.06
2023-04-14T04:58:39.630Z,95.06
2023-04-14T04:59:39.649Z,94.95
2023-04-14T05:00:39.637Z,94.95
2023-04-14T05:01:39.641Z,94.95
2023-04-14T05:02:41.111Z,94.74
2023-04-14T05:03:39.601Z,94.68
2023-04-14T05:04:39.601Z,94.68
2023-04-14T05:05:39.588Z,94.89
2023-04-14T05:06:39.540Z,95.00
2023-04-14T05:07:39.532Z,95.00
2023-04-14T05:08:39.501Z,94.89
2023-04-14T05:09:39.514Z,94.89
2023-04-14T05:10:39.548Z,94.79
2023-04-14T05:11:39.501Z,94.68
2023-04-14T05:12:39.456Z,94.79
2023-04-14T05:13:39.458Z,94.79
2023-04-14T05:14:39.438Z,94.79
2023-04-14T05:15:39.463Z,94.79
2023-04-14T05:16:39.427Z,94.89
2023-04-14T05:17:39.441Z,94.89
2023-04-14T05:18:39.375Z,95.00
2023-04-14T05:19:39.388Z,95.00
2023-04-14T05:20:39.349Z,95.00
2023-04-14T05:21:39.370Z,95.10
2023-04-14T05:22:39.367Z,95.20
2023-04-14T05:23:39.342Z,95.20
2023-04-14T05:24:39.294Z,95.31
2023-04-14T05:25:39.310Z,95.31
2023-04-14T05:27:39.312Z,95.31
2023-04-14T05:28:39.255Z,95.37
2023-04-14T05:29:39.258Z,95.47
2023-04-14T05:30:39.237Z,95.47
2023-04-14T05:31:39.269Z,95.57
2023-04-14T05:32:39.254Z,95.68
2023-04-14T05:33:39.204Z,95.68
2023-04-14T05:34:39.182Z,95.57
2023-04-14T05:35:39.192Z,95.68
2023-04-14T05:36:39.161Z,95.68
2023-04-14T05:37:39.154Z,95.74
2023-04-14T05:38:39.139Z,95.74
2023-04-14T05:39:39.146Z,95.64
2023-04-14T05:40:39.099Z,95.64
2023-04-14T05:41:39.105Z,95.74
2023-04-14T05:42:39.060Z,95.74
2023-04-14T05:43:39.073Z,95.84
2023-04-14T05:44:39.049Z,95.84
2023-04-14T05:45:39.043Z,95.74
2023-04-14T05:46:39.058Z,95.64
2023-04-14T05:47:39.069Z,95.64
2023-04-14T05:48:38.986Z,95.64
2023-04-14T05:49:38.989Z,95.74
2023-04-14T05:50:38.980Z,95.74
2023-04-14T05:51:38.969Z,95.70
2023-04-14T05:52:38.933Z,95.70
2023-04-14T05:53:38.941Z,95.70
2023-04-14T05:54:40.067Z,95.70
2023-04-14T05:55:38.935Z,95.70
2023-04-14T05:56:38.895Z,95.70
2023-04-14T05:57:38.880Z,95.70
2023-04-14T05:58:38.858Z,95.80
2023-04-14T05:59:38.851Z,95.90
2023-04-14T06:00:38.857Z,96.01
2023-04-14T06:01:38.957Z,95.90
2023-04-14T06:02:38.959Z,95.90
2023-04-14T06:03:40.596Z,96.01
2023-04-14T06:04:38.971Z,96.11
2023-04-14T06:05:38.746Z,96.21
2023-04-14T06:06:38.768Z,96.27
2023-04-14T06:07:38.758Z,96.48
2023-04-14T06:08:38.752Z,96.48
2023-04-14T06:09:38.719Z,96.48
2023-04-14T06:10:38.742Z,96.48
2023-04-14T06:11:38.682Z,96.48
2023-04-14T06:12:38.689Z,96.48
2023-04-14T06:13:38.660Z,96.37
2023-04-14T06:14:38.680Z,96.44
2023-04-14T06:15:38.627Z,96.44
2023-04-14T06:16:38.703Z,96.54
2023-04-14T06:17:38.665Z,96.54
2023-04-14T06:18:38.608Z,96.44
2023-04-14T06:19:38.582Z,96.44
2023-04-14T06:20:38.590Z,96.44
2023-04-14T06:21:38.564Z,96.44
2023-04-14T06:22:38.561Z,96.44
2023-04-14T06:23:38.558Z,96.49
2023-04-14T06:24:38.553Z,96.49
2023-04-14T06:25:38.488Z,96.59
2023-04-14T06:26:38.543Z,96.49
2023-04-14T06:27:38.475Z,96.49
2023-04-14T06:28:38.496Z,96.59
2023-04-14T06:29:38.459Z,96.45
2023-04-14T06:30:38.504Z,96.45
2023-04-14T06:31:38.439Z,96.45
2023-04-14T06:32:38.448Z,96.45
2023-04-14T06:33:38.388Z,96.45
2023-04-14T06:34:38.407Z,96.24
2023-04-14T06:35:38.374Z,96.09
2023-04-14T06:36:38.384Z,96.09
2023-04-14T06:37:38.340Z,95.99
2023-04-14T06:38:38.366Z,95.78
2023-04-14T06:39:38.308Z,95.68
2023-04-14T06:40:38.316Z,95.48
2023-04-14T06:41:38.269Z,95.32
2023-04-14T06:42:38.318Z,95.32
2023-04-14T06:43:38.249Z,95.22
2023-04-14T06:44:38.260Z,95.32
2023-04-14T06:45:38.318Z,95.07
2023-04-14T06:46:38.239Z,95.07
2023-04-14T06:47:38.314Z,94.97
2023-04-14T06:48:38.239Z,94.87
2023-04-14T06:49:38.184Z,94.56
2023-04-14T06:50:38.206Z,94.42
2023-04-14T06:51:38.175Z,94.21
2023-04-14T06:52:38.159Z,94.21
2023-04-14T06:53:38.169Z,94.00
2023-04-14T06:54:38.137Z,93.69
2023-04-14T06:55:38.094Z,93.38
2023-04-14T06:56:38.111Z,93.13
2023-04-14T06:57:38.068Z,92.51
2023-04-14T06:58:38.178Z,92.51
2023-04-14T06:59:38.048Z,92.72
2023-04-14T07:00:38.065Z,92.31
2023-04-14T07:01:38.055Z,91.96
2023-04-14T07:02:38.165Z,91.69
2023-04-14T07:03:38.001Z,91.64
2023-04-14T07:04:38.110Z,91.54
2023-04-14T07:05:37.952Z,91.34
2023-04-14T07:06:37.967Z,91.64
2023-04-14T07:07:37.923Z,91.75
2023-04-14T07:08:37.952Z,91.44
2023-04-14T07:09:38.001Z,91.50
2023-04-14T07:10:37.921Z,91.81
2023-04-14T07:11:37.878Z,91.91
2023-04-14T07:12:37.876Z,91.66
2023-04-14T07:13:37.869Z,91.05
2023-04-14T07:14:37.900Z,90.73
2023-04-14T07:15:37.961Z,90.64
2023-04-14T07:16:37.851Z,90.22
2023-04-14T07:17:37.849Z,90.18
2023-04-14T07:18:37.827Z,90.18
2023-04-14T07:19:37.815Z,89.97
2023-04-14T07:20:37.788Z,89.83
2023-04-14T07:21:37.748Z,89.73
2023-04-14T07:22:37.757Z,88.90
2023-04-14T07:23:37.712Z,88.18
2023-04-14T07:24:37.748Z,87.87
2023-04-14T07:25:37.698Z,87.36
2023-04-14T07:26:37.696Z,87.05
2023-04-14T07:27:37.658Z,87.22
2023-04-14T07:28:37.700Z,87.12
2023-04-14T07:29:37.641Z,87.94
2023-04-14T07:30:37.668Z,87.42
2023-04-14T07:31:37.687Z,86.77
2023-04-14T07:32:37.697Z,86.87
2023-04-14T07:33:37.596Z,85.84
2023-04-14T07:34:37.599Z,85.94
2023-04-14T07:35:40.223Z,84.91
2023-04-14T07:36:37.567Z,85.02
2023-04-14T07:37:37.555Z,85.33
2023-04-14T07:38:37.531Z,85.08
2023-04-14T07:39:37.490Z,84.88
2023-04-14T07:40:40.057Z,84.36
2023-04-14T07:41:37.504Z,83.91
2023-04-14T07:42:37.515Z,84.94
2023-04-14T07:43:37.485Z,85.52
2023-04-14T07:44:37.468Z,84.34
2023-04-14T07:45:37.432Z,83.80
2023-04-14T07:46:37.564Z,82.93
2023-04-14T07:47:37.455Z,82.18
2023-04-14T07:48:37.428Z,81.32
2023-04-14T07:49:37.405Z,81.49
2023-04-14T07:50:37.375Z,79.34
2023-04-14T07:51:37.357Z,78.79
2023-04-14T07:52:37.373Z,78.17
2023-04-14T07:53:37.316Z,77.32
2023-04-14T07:54:37.349Z,78.14
2023-04-14T07:55:37.310Z,77.01
2023-04-14T07:56:37.351Z,76.81
2023-04-14T07:57:37.275Z,76.98
2023-04-14T07:58:37.313Z,77.19
2023-04-14T07:59:37.257Z,75.75
2023-04-14T08:00:37.267Z,75.85
2023-04-14T08:01:37.221Z,75.45
2023-04-14T08:02:37.337Z,76.03
2023-04-14T08:03:37.460Z,75.62
2023-04-14T08:04:37.253Z,75.48
2023-04-14T08:05:37.216Z,74.66
2023-04-14T08:06:37.179Z,74.46
2023-04-14T08:07:37.214Z,73.74
2023-04-14T08:08:37.153Z,73.36
2023-04-14T08:09:37.132Z,73.77
2023-04-14T08:10:37.125Z,73.98
2023-04-14T08:11:37.078Z,73.68
2023-04-14T08:12:37.115Z,71.22
2023-04-14T08:13:37.062Z,72.86
2023-04-14T08:14:37.124Z,71.22
2023-04-14T08:15:37.031Z,70.92
2023-04-14T08:16:37.298Z,71.46
2023-04-14T08:17:37.010Z,72.48
2023-04-14T08:18:37.046Z,72.28
2023-04-14T08:19:37.001Z,71.97
2023-04-14T08:20:37.004Z,72.28
2023-04-14T08:21:36.989Z,72.48
2023-04-14T08:22:36.962Z,71.05
2023-04-14T08:23:36.930Z,71.56
2023-04-14T08:24:37.911Z,71.33
2023-04-14T08:25:36.882Z,70.61
2023-04-14T08:26:36.897Z,71.73
2023-04-14T08:27:36.869Z,70.88
2023-04-14T08:28:36.873Z,70.27
2023-04-14T08:29:36.873Z,71.39
2023-04-14T08:30:36.848Z,72.62
2023-04-14T08:31:36.869Z,70.68
2023-04-14T08:32:36.904Z,70.68
2023-04-14T08:33:36.779Z,71.91
2023-04-14T08:34:36.777Z,71.59
2023-04-14T08:35:41.522Z,70.68
2023-04-14T08:36:36.791Z,71.15
2023-04-14T08:37:36.739Z,70.44
2023-04-14T08:38:36.735Z,70.54
2023-04-14T08:39:36.704Z,70.64
2023-04-14T08:40:36.749Z,69.82
2023-04-14T08:41:36.681Z,70.64
2023-04-14T08:42:36.693Z,69.93
2023-04-14T08:43:36.651Z,70.03
2023-04-14T08:44:36.667Z,70.81
2023-04-14T08:45:36.689Z,70.00
2023-04-14T08:46:36.661Z,70.54
2023-04-14T08:47:36.604Z,70.03
2023-04-14T08:48:36.598Z,70.95
2023-04-14T08:49:36.565Z,71.26
2023-04-14T08:50:36.600Z,70.92
2023-04-14T08:51:36.562Z,71.70
2023-04-14T08:52:36.546Z,72.69
2023-04-14T08:53:36.509Z,71.53
2023-04-14T08:54:36.530Z,68.75
2023-04-14T08:55:36.514Z,65.52
2023-04-14T08:56:36.534Z,67.96
2023-04-14T08:57:36.462Z,67.96
2023-04-14T08:58:36.477Z,67.86
2023-04-14T08:59:36.448Z,70.00
2023-04-14T09:00:36.444Z,67.86
2023-04-14T09:01:36.549Z,68.57
2023-04-14T09:02:36.543Z,69.09
2023-04-14T09:03:36.589Z,68.48
2023-04-14T09:04:36.624Z,66.67
2023-04-14T09:05:36.536Z,67.79
2023-04-14T09:06:36.430Z,67.69
2023-04-14T09:07:36.349Z,67.99
2023-04-14T09:08:36.400Z,67.18
2023-04-14T09:09:36.320Z,68.48
2023-04-14T09:10:36.315Z,66.94
2023-04-14T09:11:36.305Z,67.35
2023-04-14T09:12:36.439Z,66.44
2023-04-14T09:13:36.283Z,64.81
2023-04-14T09:14:36.257Z,63.38
2023-04-14T09:15:36.266Z,63.89
2023-04-14T09:16:36.313Z,63.89
2023-04-14T09:17:36.227Z,65.08
2023-04-14T09:18:36.515Z,65.86
2023-04-14T09:19:36.193Z,63.59
2023-04-14T09:20:41.401Z,63.09
2023-04-14T09:21:53.768Z,63.67
2023-04-14T09:22:36.155Z,62.65
2023-04-14T09:23:36.130Z,61.60
2023-04-14T09:24:36.156Z,58.89
2023-04-14T09:25:36.094Z,60.41
2023-04-14T09:26:36.099Z,62.55
2023-04-14T09:27:36.065Z,60.31
2023-04-14T09:28:36.075Z,60.54
2023-04-14T09:29:36.051Z,59.63
2023-04-14T09:30:36.056Z,61.13
2023-04-14T09:31:36.141Z,63.94
2023-04-14T09:32:36.061Z,63.02
2023-04-14T09:33:36.005Z,60.36
2023-04-14T09:34:35.983Z,61.68
2023-04-14T09:35:35.966Z,59.98
2023-04-14T09:36:36.005Z,62.62
2023-04-14T09:37:35.944Z,61.17
2023-04-14T09:38:35.937Z,61.57
2023-04-14T09:39:35.899Z,61.44
2023-04-14T09:40:35.904Z,59.62
2023-04-14T09:41:35.880Z,59.75
2023-04-14T09:42:35.904Z,61.27
2023-04-14T09:43:35.867Z,58.42
2023-04-14T09:44:35.857Z,59.44
2023-04-14T09:45:35.830Z,61.65
2023-04-14T09:46:35.900Z,62.05
2023-04-14T09:47:35.847Z,60.13
2023-04-14T09:48:35.807Z,59.01
2023-04-14T09:49:35.811Z,58.94
2023-04-14T09:50:35.788Z,58.15
2023-04-14T09:51:35.790Z,59.67
2023-04-14T09:52:35.751Z,60.76
2023-04-14T09:53:35.765Z,62.79
2023-04-14T09:54:35.725Z,61.75
2023-04-14T09:55:35.707Z,62.16
2023-04-14T09:56:35.738Z,59.59
2023-04-14T09:57:35.659Z,60.17
2023-04-14T09:58:35.689Z,58.85
2023-04-14T09:59:35.658Z,58.34
2023-04-14T10:00:35.683Z,56.72
2023-04-14T10:01:35.670Z,58.04
2023-04-14T10:02:35.688Z,59.26
2023-04-14T10:03:35.648Z,60.17
2023-04-14T10:04:35.668Z,59.46
2023-04-14T10:05:35.555Z,59.46
2023-04-14T10:06:35.615Z,59.33
2023-04-14T10:07:35.537Z,57.12
2023-04-14T10:08:35.564Z,57.66
2023-04-14T10:09:35.537Z,59.89
2023-04-14T10:10:35.564Z,58.88
2023-04-14T10:11:35.518Z,59.18
2023-04-14T10:12:35.552Z,58.37
2023-04-14T10:13:35.463Z,59.92
2023-04-14T10:14:35.508Z,60.91
2023-04-14T10:15:35.452Z,58.88
2023-04-14T10:16:35.530Z,57.15
2023-04-14T10:17:35.433Z,58.58
2023-04-14T10:18:35.408Z,60.47
2023-04-14T10:19:35.374Z,56.62
2023-04-14T10:20:35.349Z,57.33
2023-04-14T10:21:35.388Z,57.53
2023-04-14T10:22:35.353Z,55.80
2023-04-14T10:23:35.342Z,57.46
2023-04-14T10:24:35.333Z,56.87
2023-04-14T10:25:35.316Z,56.80
2023-04-14T10:26:35.291Z,58.83
2023-04-14T10:27:35.299Z,58.42
2023-04-14T10:28:35.257Z,58.96
2023-04-14T10:29:35.250Z,59.57
2023-04-14T10:30:35.248Z,60.59
2023-04-14T10:31:35.318Z,61.30
2023-04-14T10:32:35.238Z,58.96
2023-04-14T10:33:35.233Z,60.11
2023-04-14T10:34:35.188Z,61.13
2023-04-14T10:35:35.212Z,60.08
2023-04-14T10:36:35.131Z,60.31
2023-04-14T10:37:35.205Z,59.70
2023-04-14T10:38:35.166Z,59.60
2023-04-14T10:39:35.147Z,58.86
2023-04-14T10:40:35.103Z,58.35
2023-04-14T10:41:35.136Z,58.45
2023-04-14T10:42:35.061Z,59.16
2023-04-14T10:43:35.073Z,59.09
2023-04-14T10:44:35.218Z,59.16
2023-04-14T10:45:35.057Z,58.38
2023-04-14T10:46:35.039Z,59.37
2023-04-14T10:47:35.096Z,58.96
2023-04-14T10:48:35.013Z,59.60
2023-04-14T10:49:35.040Z,60.21
2023-04-14T10:50:34.958Z,60.49
2023-04-14T10:51:34.976Z,57.84
2023-04-14T10:52:35.018Z,58.86
2023-04-14T10:53:34.943Z,57.74
2023-04-14T10:54:34.934Z,55.30
2023-04-14T10:55:37.295Z,56.12
2023-04-14T10:56:34.915Z,55.33
2023-04-14T10:57:35.450Z,56.65
2023-04-14T10:58:34.880Z,55.73
2023-04-14T10:59:34.877Z,56.42
2023-04-14T11:00:34.880Z,53.88
2023-04-14T11:01:34.901Z,55.30
2023-04-14T11:02:35.425Z,56.12
2023-04-14T11:03:35.000Z,57.00
2023-04-14T11:04:34.883Z,54.13
2023-04-14T11:05:34.812Z,53.32
2023-04-14T11:06:34.775Z,53.52
2023-04-14T11:07:34.768Z,52.30
2023-04-14T11:08:34.734Z,51.90
2023-04-14T11:09:34.779Z,52.00
2023-04-14T11:10:34.715Z,52.81
2023-04-14T11:11:34.727Z,54.84
2023-04-14T11:12:34.664Z,54.72
2023-04-14T11:13:34.673Z,54.31
2023-04-14T11:14:34.663Z,51.37
2023-04-14T11:15:34.654Z,52.20
2023-04-14T11:16:34.653Z,52.91
2023-04-14T11:17:34.677Z,54.36
2023-04-14T11:18:34.585Z,55.88
2023-04-14T11:19:34.606Z,55.68
2023-04-14T11:20:34.592Z,55.78
2023-04-14T11:21:34.589Z,55.07
2023-04-14T11:22:34.528Z,54.87
2023-04-14T11:23:34.537Z,54.05
2023-04-14T11:24:34.525Z,55.38
2023-04-14T11:25:34.513Z,55.18
2023-04-14T11:26:34.560Z,51.51
2023-04-14T11:27:34.509Z,50.81
2023-04-14T11:28:34.466Z,48.97
2023-04-14T11:29:34.511Z,49.76
2023-04-14T11:30:34.425Z,50.07
2023-04-14T11:31:34.449Z,50.78
2023-04-14T11:32:34.405Z,50.98
2023-04-14T11:33:34.454Z,49.36
2023-04-14T11:34:34.435Z,50.27
2023-04-14T11:35:34.385Z,52.69
2023-04-14T11:36:34.353Z,53.42
2023-04-14T11:37:34.362Z,54.33
2023-04-14T11:38:34.323Z,55.45
2023-04-14T11:39:34.349Z,55.83
2023-04-14T11:40:34.288Z,55.05
2023-04-14T11:41:34.310Z,56.47
2023-04-14T11:42:34.256Z,56.24
2023-04-14T11:43:34.270Z,56.74
2023-04-14T11:44:34.245Z,53.80
2023-04-14T11:45:34.258Z,54.82
2023-04-14T11:46:34.232Z,55.53
2023-04-14T11:47:34.243Z,53.50
2023-04-14T11:48:34.197Z,53.30
2023-04-14T11:49:34.227Z,52.89
2023-04-14T11:50:34.152Z,53.09
2023-04-14T11:51:34.173Z,53.09
2023-04-14T11:52:34.145Z,52.99
2023-04-14T11:53:34.165Z,50.84
2023-04-14T11:54:34.105Z,50.93
2023-04-14T11:55:34.110Z,48.91
2023-04-14T11:56:34.091Z,48.91
2023-04-14T11:57:34.108Z,49.31
2023-04-14T11:58:34.069Z,51.14
2023-04-14T11:59:34.062Z,51.44
2023-04-14T12:00:34.049Z,51.34
2023-04-14T12:01:34.069Z,53.58
2023-04-14T12:02:34.149Z,53.85
2023-04-14T12:03:34.243Z,51.62
2023-04-14T12:04:34.136Z,51.01
2023-04-14T12:05:34.084Z,51.95
2023-04-14T12:06:33.940Z,52.56
2023-04-14T12:07:34.001Z,52.36
2023-04-14T12:08:33.976Z,53.06
2023-04-14T12:09:34.034Z,55.27
2023-04-14T12:10:33.894Z,51.42
2023-04-14T12:11:33.919Z,50.53
2023-04-14T12:12:33.890Z,51.24
2023-04-14T12:13:33.878Z,52.86
2023-04-14T12:14:33.906Z,51.82
2023-04-14T12:15:33.839Z,50.60
2023-04-14T12:16:33.877Z,50.20
2023-04-14T12:17:33.839Z,48.91
2023-04-14T12:18:33.828Z,49.72
2023-04-14T12:19:33.807Z,50.33
2023-04-14T12:20:33.780Z,51.85
2023-04-14T12:21:33.898Z,50.84
2023-04-14T12:22:33.736Z,54.08
2023-04-14T12:23:33.751Z,52.86
2023-04-14T12:24:33.723Z,52.23
2023-04-14T12:25:33.723Z,53.96
2023-04-14T12:26:33.697Z,53.25
2023-04-14T12:27:33.732Z,50.51
2023-04-14T12:28:33.652Z,49.69
2023-04-14T12:29:33.707Z,49.21
2023-04-14T12:30:33.648Z,50.84
2023-04-14T12:31:33.712Z,47.59
2023-04-14T12:32:33.613Z,47.10
2023-04-14T12:33:33.614Z,46.80
2023-04-14T12:34:33.573Z,46.80
2023-04-14T12:35:33.578Z,47.71
2023-04-14T12:36:48.672Z,47.61
2023-04-14T12:37:33.579Z,49.33
2023-04-14T12:38:33.513Z,48.65
2023-04-14T12:39:33.546Z,50.07
2023-04-14T12:40:33.511Z,49.56
2023-04-14T12:41:33.497Z,49.95
2023-04-14T12:42:33.493Z,51.98
2023-04-14T12:43:33.484Z,51.37
2023-04-14T12:44:33.430Z,50.35
2023-04-14T12:45:33.459Z,51.98
2023-04-14T12:46:33.440Z,50.53
2023-04-14T12:47:33.585Z,51.54
2023-04-14T12:48:33.379Z,51.24
2023-04-14T12:49:33.422Z,51.34
2023-04-14T12:50:33.368Z,49.31
2023-04-14T12:51:33.398Z,48.27
2023-04-14T12:52:33.347Z,50.20
2023-04-14T12:53:33.362Z,49.39